createdAt,value
2019-01-21T00:00:28.137Z,-4.20
2019-01-21T00:01:28.308Z,-4.20
2019-01-21T00:02:28.468Z,-4.27
2019-01-21T00:03:28.633Z,-4.43
2019-01-21T00:04:28.801Z,-4.55
2019-01-21T00:05:28.970Z,-4.42
2019-01-21T00:06:29.139Z,-4.46
2019-01-21T00:07:29.321Z,-4.41
2019-01-21T00:08:29.473Z,-4.35
2019-01-21T00:09:29.639Z,-4.48
2019-01-21T00:10:29.806Z,-4.30
2019-01-21T00:11:29.972Z,-4.38
2019-01-21T00:12:30.137Z,-4.43
2019-01-21T00:13:30.304Z,-4.35
2019-01-21T00:14:30.483Z,-4.25
2019-01-21T00:15:30.632Z,-4.30
2019-01-21T00:16:30.822Z,-4.25
2019-01-21T00:17:30.976Z,-4.28
2019-01-21T00:18:31.133Z,-4.31
2019-01-21T00:19:31.318Z,-4.42
2019-01-21T00:20:31.474Z,-4.39
2019-01-21T00:21:31.638Z,-4.46
2019-01-21T00:22:31.808Z,-4.42
2019-01-21T00:23:31.985Z,-4.35
2019-01-21T00:24:32.153Z,-4.27
2019-01-21T00:25:32.319Z,-4.35
2019-01-21T00:26:32.485Z,-4.32
2019-01-21T00:27:32.641Z,-4.27
2019-01-21T00:28:32.822Z,-4.30
2019-01-21T00:29:32.983Z,-4.27
2019-01-21T00:30:33.149Z,-4.20
2019-01-21T00:31:33.322Z,-4.16
2019-01-21T00:32:33.489Z,-4.27
2019-01-21T00:33:33.651Z,-4.21
2019-01-21T00:34:33.817Z,-4.31
2019-01-21T00:35:33.987Z,-4.46
2019-01-21T00:36:34.161Z,-4.46
2019-01-21T00:37:34.315Z,-4.39
2019-01-21T00:38:34.497Z,-4.42
2019-01-21T00:39:34.663Z,-4.42
2019-01-21T00:40:34.829Z,-4.43
2019-01-21T00:41:34.996Z,-4.42
2019-01-21T00:42:35.165Z,-4.50
2019-01-21T00:43:35.329Z,-4.61
2019-01-21T00:44:35.504Z,-4.64
2019-01-21T00:45:35.654Z,-4.66
2019-01-21T00:46:35.831Z,-4.59
2019-01-21T00:47:35.986Z,-4.63
2019-01-21T00:48:36.158Z,-4.67
2019-01-21T00:49:36.320Z,-4.60
2019-01-21T00:50:36.503Z,-4.73
2019-01-21T00:51:36.658Z,-4.78
2019-01-21T00:52:36.819Z,-4.75
2019-01-21T00:53:36.996Z,-4.79
2019-01-21T00:54:37.146Z,-4.84
2019-01-21T00:55:37.313Z,-4.77
2019-01-21T00:56:37.477Z,-4.85
2019-01-21T00:57:37.640Z,-4.87
2019-01-21T00:58:37.802Z,-4.88
2019-01-21T00:59:37.975Z,-4.98
2019-01-21T01:00:38.133Z,-4.95
2019-01-21T01:01:38.299Z,-4.99
2019-01-21T01:02:38.471Z,-5.05
2019-01-21T01:03:38.632Z,-5.02
2019-01-21T01:04:38.801Z,-5.00
2019-01-21T01:06:39.144Z,-4.99
2019-01-21T01:07:39.323Z,-4.99
2019-01-21T01:08:39.479Z,-5.02
2019-01-21T01:09:39.653Z,-4.98
2019-01-21T01:10:39.809Z,-4.96
2019-01-21T01:11:39.978Z,-4.92
2019-01-21T01:12:40.142Z,-4.99
2019-01-21T01:13:40.317Z,-4.98
2019-01-21T01:14:40.469Z,-4.92
2019-01-21T01:15:40.637Z,-5.03
2019-01-21T01:16:40.806Z,-4.95
2019-01-21T01:17:40.970Z,-4.87
2019-01-21T01:18:41.137Z,-4.96
2019-01-21T01:19:41.303Z,-4.92
2019-01-21T01:20:41.468Z,-4.84
2019-01-21T01:21:41.645Z,-4.87
2019-01-21T01:22:41.799Z,-4.87
2019-01-21T01:23:41.965Z,-4.77
2019-01-21T01:24:42.136Z,-4.77
2019-01-21T01:25:42.301Z,-4.79
2019-01-21T01:26:42.463Z,-4.78
2019-01-21T01:27:42.630Z,-4.79
2019-01-21T01:28:42.795Z,-4.78
2019-01-21T01:29:42.963Z,-4.77
2019-01-21T01:30:43.127Z,-4.75
2019-01-21T01:31:43.294Z,-4.71
2019-01-21T01:32:43.468Z,-4.77
2019-01-21T01:33:43.624Z,-4.78
2019-01-21T01:34:43.782Z,-4.81
2019-01-21T01:35:43.950Z,-4.88
2019-01-21T01:36:44.132Z,-4.82
2019-01-21T01:37:44.283Z,-4.84
2019-01-21T01:38:44.452Z,-4.91
2019-01-21T01:39:44.615Z,-4.88
2019-01-21T01:40:44.803Z,-4.88
2019-01-21T01:41:44.972Z,-4.99
2019-01-21T01:42:45.128Z,-5.02
2019-01-21T01:43:45.305Z,-4.96
2019-01-21T01:44:45.466Z,-5.00
2019-01-21T01:45:45.633Z,-5.03
2019-01-21T01:46:45.799Z,-5.08
2019-01-21T01:47:45.969Z,-4.92
2019-01-21T01:48:46.641Z,-4.88
2019-01-21T01:49:46.304Z,-4.98
2019-01-21T01:50:46.468Z,-5.02
2019-01-21T01:51:46.639Z,-5.06
2019-01-21T01:52:46.812Z,-5.06
2019-01-21T01:53:46.971Z,-5.10
2019-01-21T01:54:47.141Z,-5.06
2019-01-21T01:55:47.301Z,-5.09
2019-01-21T01:56:47.466Z,-5.09
2019-01-21T01:57:47.636Z,-5.10
2019-01-21T01:58:47.798Z,-5.17
2019-01-21T01:59:47.964Z,-5.17
2019-01-21T02:00:48.139Z,-5.29
2019-01-21T02:01:48.300Z,-5.28
2019-01-21T02:02:48.468Z,-5.28
2019-01-21T02:03:48.630Z,-5.21
2019-01-21T02:04:48.790Z,-5.10
2019-01-21T02:05:48.960Z,-5.27
2019-01-21T02:06:49.125Z,-5.25
2019-01-21T02:07:49.298Z,-5.35
2019-01-21T02:08:49.466Z,-5.27
2019-01-21T02:09:49.621Z,-5.28
2019-01-21T02:10:49.792Z,-5.33
2019-01-21T02:11:49.960Z,-5.25
2019-01-21T02:12:50.129Z,-5.27
2019-01-21T02:13:50.288Z,-5.19
2019-01-21T02:14:50.457Z,-5.28
2019-01-21T02:15:50.620Z,-5.27
2019-01-21T02:16:50.787Z,-5.24
2019-01-21T02:17:52.115Z,-5.28
2019-01-21T02:18:51.113Z,-5.24
2019-01-21T02:19:51.286Z,-5.39
2019-01-21T02:20:51.458Z,-5.31
2019-01-21T02:21:51.618Z,-5.29
2019-01-21T02:22:51.787Z,-5.43
2019-01-21T02:23:51.946Z,-5.38
2019-01-21T02:24:52.119Z,-5.51
2019-01-21T02:25:52.306Z,-5.53
2019-01-21T02:26:52.447Z,-5.47
2019-01-21T02:27:52.616Z,-5.51
2019-01-21T02:28:52.784Z,-5.51
2019-01-21T02:29:52.966Z,-5.47
2019-01-21T02:30:53.192Z,-5.51
2019-01-21T02:31:53.268Z,-5.53
2019-01-21T02:32:53.445Z,-5.51
2019-01-21T02:33:53.597Z,-5.57
2019-01-21T02:34:53.762Z,-5.49
2019-01-21T02:35:53.929Z,-5.56
2019-01-21T02:36:54.113Z,-5.47
2019-01-21T02:37:54.272Z,-5.56
2019-01-21T02:38:54.426Z,-5.60
2019-01-21T02:39:54.594Z,-5.56
2019-01-21T02:40:54.806Z,-5.64
2019-01-21T02:41:54.928Z,-5.72
2019-01-21T02:42:55.093Z,-5.76
2019-01-21T02:43:55.256Z,-5.71
2019-01-21T02:44:55.422Z,-5.67
2019-01-21T02:45:55.590Z,-5.68
2019-01-21T02:46:55.757Z,-5.63
2019-01-21T02:48:00.322Z,-5.63
2019-01-21T02:48:56.088Z,-5.71
2019-01-21T02:49:56.252Z,-5.71
2019-01-21T02:50:56.423Z,-5.79
2019-01-21T02:51:56.586Z,-5.82
2019-01-21T02:52:56.754Z,-5.86
2019-01-21T02:53:56.918Z,-5.97
2019-01-21T02:54:57.083Z,-5.99
2019-01-21T02:55:57.250Z,-5.97
2019-01-21T02:56:57.417Z,-5.95
2019-01-21T02:57:57.579Z,-5.95
2019-01-21T02:58:57.746Z,-5.96
2019-01-21T02:59:57.911Z,-6.10
2019-01-21T03:00:58.074Z,-6.08
2019-01-21T03:01:58.241Z,-6.14
2019-01-21T03:02:58.405Z,-6.11
2019-01-21T03:03:58.564Z,-5.96
2019-01-21T03:04:58.734Z,-5.99
2019-01-21T03:05:58.898Z,-5.93
2019-01-21T03:06:59.065Z,-5.82
2019-01-21T03:07:59.234Z,-5.76
2019-01-21T03:08:59.397Z,-5.78
2019-01-21T03:09:59.560Z,-5.81
2019-01-21T03:10:59.729Z,-5.71
2019-01-21T03:11:59.898Z,-5.79
2019-01-21T03:13:00.059Z,-5.81
2019-01-21T03:14:00.221Z,-5.97
2019-01-21T03:15:00.513Z,-5.90
2019-01-21T03:16:00.558Z,-5.97
2019-01-21T03:17:00.731Z,-5.95
2019-01-21T03:18:07.767Z,-5.99
2019-01-21T03:19:01.052Z,-5.95
2019-01-21T03:20:01.220Z,-5.97
2019-01-21T03:21:01.385Z,-5.93
2019-01-21T03:22:01.555Z,-6.10
2019-01-21T03:23:01.719Z,-6.13
2019-01-21T03:24:01.886Z,-6.10
2019-01-21T03:25:02.055Z,-6.11
2019-01-21T03:26:02.221Z,-6.11
2019-01-21T03:27:02.384Z,-6.14
2019-01-21T03:28:02.558Z,-6.10
2019-01-21T03:29:02.713Z,-6.13
2019-01-21T03:30:02.888Z,-6.03
2019-01-21T03:31:03.061Z,-5.96
2019-01-21T03:32:03.232Z,-6.05
2019-01-21T03:33:03.388Z,-6.03
2019-01-21T03:34:03.560Z,-5.93
2019-01-21T03:35:03.717Z,-5.95
2019-01-21T03:36:03.893Z,-5.89
2019-01-21T03:37:04.049Z,-5.90
2019-01-21T03:38:04.209Z,-5.93
2019-01-21T03:39:04.390Z,-5.85
2019-01-21T03:40:04.542Z,-5.97
2019-01-21T03:41:04.707Z,-5.82
2019-01-21T03:42:04.873Z,-5.78
2019-01-21T03:43:05.039Z,-5.76
2019-01-21T03:44:05.206Z,-5.84
2019-01-21T03:45:05.372Z,-5.85
2019-01-21T03:46:05.535Z,-5.72
2019-01-21T03:47:05.699Z,-5.82
2019-01-21T03:48:05.870Z,-5.67
2019-01-21T03:49:06.025Z,-5.76
2019-01-21T03:50:06.197Z,-5.68
2019-01-21T03:51:06.354Z,-5.78
2019-01-21T03:52:06.521Z,-5.79
2019-01-21T03:53:06.693Z,-5.81
2019-01-21T03:54:06.855Z,-5.81
2019-01-21T03:55:07.022Z,-5.78
2019-01-21T03:56:07.189Z,-5.68
2019-01-21T03:57:07.352Z,-5.79
2019-01-21T03:58:07.517Z,-5.81
2019-01-21T03:59:07.700Z,-5.86
2019-01-21T04:00:07.856Z,-5.93
2019-01-21T04:01:08.036Z,-5.89
2019-01-21T04:02:08.189Z,-5.79
2019-01-21T04:03:08.338Z,-5.81
2019-01-21T04:04:08.508Z,-5.76
2019-01-21T04:05:08.676Z,-5.67
2019-01-21T04:06:08.841Z,-5.72
2019-01-21T04:07:09.010Z,-5.57
2019-01-21T04:08:09.173Z,-5.63
2019-01-21T04:09:09.345Z,-5.63
2019-01-21T04:10:09.506Z,-5.58
2019-01-21T04:11:09.676Z,-5.56
2019-01-21T04:12:09.838Z,-5.51
2019-01-21T04:13:10.013Z,-5.51
2019-01-21T04:14:10.179Z,-5.53
2019-01-21T04:15:10.336Z,-5.49
2019-01-21T04:16:10.504Z,-5.47
2019-01-21T04:17:10.678Z,-5.46
2019-01-21T04:18:10.841Z,-5.40
2019-01-21T04:19:11.005Z,-5.38
2019-01-21T04:20:11.185Z,-5.31
2019-01-21T04:21:11.340Z,-5.40
2019-01-21T04:22:11.505Z,-5.29
2019-01-21T04:23:11.673Z,-5.27
2019-01-21T04:24:11.838Z,-5.22
2019-01-21T04:25:12.005Z,-5.27
2019-01-21T04:26:12.173Z,-5.19
2019-01-21T04:27:12.340Z,-5.19
2019-01-21T04:28:12.524Z,-5.33
2019-01-21T04:29:12.665Z,-5.28
2019-01-21T04:30:12.829Z,-5.25
2019-01-21T04:31:13.004Z,-5.27
2019-01-21T04:32:13.173Z,-5.33
2019-01-21T04:33:13.336Z,-5.33
2019-01-21T04:34:13.503Z,-5.21
2019-01-21T04:35:13.671Z,-5.27
2019-01-21T04:36:13.833Z,-5.09
2019-01-21T04:37:14.003Z,-5.10
2019-01-21T04:38:14.175Z,-5.05
2019-01-21T04:39:14.331Z,-4.99
2019-01-21T04:40:14.497Z,-5.03
2019-01-21T04:41:14.665Z,-4.95
2019-01-21T04:42:14.836Z,-4.87
2019-01-21T04:43:15.000Z,-4.95
2019-01-21T04:44:15.168Z,-4.87
2019-01-21T04:45:15.330Z,-5.03
2019-01-21T04:46:15.534Z,-4.95
2019-01-21T04:47:15.659Z,-4.98
2019-01-21T04:48:15.824Z,-5.03
2019-01-21T04:49:15.995Z,-5.00
2019-01-21T04:50:16.164Z,-4.95
2019-01-21T04:51:16.353Z,-4.89
2019-01-21T04:52:16.522Z,-4.84
2019-01-21T04:53:16.676Z,-5.00
2019-01-21T04:54:16.849Z,-5.03
2019-01-21T04:55:17.018Z,-4.87
2019-01-21T04:56:17.182Z,-4.87
2019-01-21T04:57:17.348Z,-4.81
2019-01-21T04:58:17.516Z,-4.88
2019-01-21T04:59:17.674Z,-5.00
2019-01-21T05:00:17.849Z,-5.02
2019-01-21T05:01:18.011Z,-4.96
2019-01-21T05:02:18.179Z,-4.89
2019-01-21T05:03:18.331Z,-4.96
2019-01-21T05:04:18.500Z,-4.82
2019-01-21T05:05:18.668Z,-4.82
2019-01-21T05:06:18.829Z,-4.88
2019-01-21T05:07:18.999Z,-4.70
2019-01-21T05:08:19.165Z,-4.73
2019-01-21T05:09:19.336Z,-4.66
2019-01-21T05:10:19.495Z,-4.73
2019-01-21T05:11:19.673Z,-4.81
2019-01-21T05:12:19.839Z,-4.71
2019-01-21T05:13:20.004Z,-4.73
2019-01-21T05:14:20.173Z,-4.75
2019-01-21T05:15:20.338Z,-4.71
2019-01-21T05:16:20.509Z,-4.79
2019-01-21T05:17:20.666Z,-4.61
2019-01-21T05:18:20.831Z,-4.81
2019-01-21T05:19:21.004Z,-4.79
2019-01-21T05:20:21.170Z,-4.60
2019-01-21T05:21:21.344Z,-4.60
2019-01-21T05:22:21.511Z,-4.61
2019-01-21T05:23:21.677Z,-4.48
2019-01-21T05:24:21.842Z,-4.49
2019-01-21T05:25:22.026Z,-4.48
2019-01-21T05:26:22.204Z,-4.48
2019-01-21T05:27:22.340Z,-4.50
2019-01-21T05:28:22.500Z,-4.64
2019-01-21T05:29:22.666Z,-4.60
2019-01-21T05:30:22.839Z,-4.61
2019-01-21T05:31:23.002Z,-4.52
2019-01-21T05:32:23.167Z,-4.52
2019-01-21T05:33:23.335Z,-4.46
2019-01-21T05:34:23.525Z,-4.35
2019-01-21T05:35:23.671Z,-4.53
2019-01-21T05:36:23.836Z,-4.38
2019-01-21T05:37:24.009Z,-4.27
2019-01-21T05:38:24.192Z,-4.27
2019-01-21T05:39:24.343Z,-4.41
2019-01-21T05:40:24.519Z,-4.35
2019-01-21T05:41:24.692Z,-4.38
2019-01-21T05:42:24.842Z,-4.27
2019-01-21T05:43:25.012Z,-4.22
2019-01-21T05:44:25.184Z,-4.30
2019-01-21T05:45:25.345Z,-4.28
2019-01-21T05:46:25.502Z,-4.28
2019-01-21T05:47:25.655Z,-4.28
2019-01-21T05:48:25.826Z,-4.30
2019-01-21T05:49:25.992Z,-4.25
2019-01-21T05:50:26.157Z,-4.21
2019-01-21T05:51:26.324Z,-4.17
2019-01-21T05:52:26.494Z,-4.13
2019-01-21T05:53:26.668Z,-4.14
2019-01-21T05:54:26.826Z,-4.12
2019-01-21T05:55:26.984Z,-4.21
2019-01-21T05:56:27.161Z,-4.13
2019-01-21T05:57:27.324Z,-4.16
2019-01-21T05:58:27.489Z,-4.12
2019-01-21T05:59:27.661Z,-4.10
2019-01-21T06:00:27.828Z,-4.04
2019-01-21T06:01:28.005Z,-4.12
2019-01-21T06:02:28.158Z,-4.12
2019-01-21T06:03:28.332Z,-4.07
2019-01-21T06:04:28.494Z,-4.17
2019-01-21T06:05:28.664Z,-4.31
2019-01-21T06:06:28.831Z,-4.21
2019-01-21T06:07:28.997Z,-4.43
2019-01-21T06:08:29.162Z,-4.66
2019-01-21T06:09:29.334Z,-4.77
2019-01-21T06:10:29.508Z,-4.71
2019-01-21T06:11:29.672Z,-4.64
2019-01-21T06:12:29.841Z,-4.49
2019-01-21T06:13:30.018Z,-4.43
2019-01-21T06:14:30.173Z,-4.48
2019-01-21T06:15:30.348Z,-4.30
2019-01-21T06:16:30.509Z,-4.21
2019-01-21T06:17:30.661Z,-4.21
2019-01-21T06:18:30.832Z,-4.14
2019-01-21T06:19:30.990Z,-4.13
2019-01-21T06:20:31.192Z,-4.07
2019-01-21T06:21:31.342Z,-4.16
2019-01-21T06:22:31.512Z,-4.09
2019-01-21T06:23:31.677Z,-4.07
2019-01-21T06:24:31.841Z,-3.99
2019-01-21T06:25:32.009Z,-4.06
2019-01-21T06:26:32.176Z,-4.13
2019-01-21T06:27:32.336Z,-4.22
2019-01-21T06:28:32.496Z,-4.14
2019-01-21T06:29:32.671Z,-4.21
2019-01-21T06:30:32.834Z,-4.20
2019-01-21T06:31:33.004Z,-4.20
2019-01-21T06:32:33.173Z,-4.12
2019-01-21T06:33:33.355Z,-4.21
2019-01-21T06:34:33.507Z,-4.13
2019-01-21T06:35:33.668Z,-4.21
2019-01-21T06:36:33.836Z,-4.22
2019-01-21T06:37:34.002Z,-4.24
2019-01-21T06:38:34.169Z,-4.17
2019-01-21T06:39:34.335Z,-4.17
2019-01-21T06:40:34.518Z,-4.10
2019-01-21T06:41:34.666Z,-4.10
2019-01-21T06:42:34.843Z,-4.16
2019-01-21T06:43:34.997Z,-4.20
2019-01-21T06:44:35.169Z,-4.17
2019-01-21T06:45:35.343Z,-4.30
2019-01-21T06:46:35.511Z,-4.31
2019-01-21T06:47:35.684Z,-4.31
2019-01-21T06:48:35.840Z,-4.28
2019-01-21T06:49:36.012Z,-4.43
2019-01-21T06:50:36.177Z,-4.31
2019-01-21T06:51:36.354Z,-4.30
2019-01-21T06:52:36.508Z,-4.16
2019-01-21T06:53:36.669Z,-4.21
2019-01-21T06:54:36.836Z,-4.07
2019-01-21T06:55:36.991Z,-4.14
2019-01-21T06:56:37.167Z,-4.09
2019-01-21T06:57:37.340Z,-4.20
2019-01-21T06:58:37.511Z,-4.09
2019-01-21T06:59:37.688Z,-3.99
2019-01-21T07:00:37.858Z,-4.03
2019-01-21T07:01:38.026Z,-3.92
2019-01-21T07:02:38.203Z,-4.04
2019-01-21T07:03:38.356Z,-3.92
2019-01-21T07:04:38.524Z,-3.89
2019-01-21T07:05:38.718Z,-3.82
2019-01-21T07:06:38.853Z,-3.75
2019-01-21T07:07:39.023Z,-3.70
2019-01-21T07:08:39.200Z,-3.66
2019-01-21T07:09:39.357Z,-3.66
2019-01-21T07:10:39.529Z,-4.17
2019-01-21T07:11:39.689Z,-4.21
2019-01-21T07:12:39.886Z,-4.28
2019-01-21T07:13:40.096Z,-4.03
2019-01-21T07:14:40.230Z,-3.93
2019-01-21T07:15:40.399Z,-3.92
2019-01-21T07:16:40.566Z,-3.86
2019-01-21T07:17:40.734Z,-3.75
2019-01-21T07:18:40.932Z,-3.82
2019-01-21T07:19:41.070Z,-3.64
2019-01-21T07:20:41.286Z,-3.56
2019-01-21T07:21:41.415Z,-3.54
2019-01-21T07:22:41.577Z,-3.45
2019-01-21T07:23:41.739Z,-3.40
2019-01-21T07:24:41.898Z,-3.59
2019-01-21T07:25:42.070Z,-3.55
2019-01-21T07:26:42.234Z,-3.58
2019-01-21T07:27:42.401Z,-3.63
2019-01-21T07:28:42.575Z,-3.44
2019-01-21T07:29:42.744Z,-3.45
2019-01-21T07:30:42.909Z,-3.51
2019-01-21T07:32:43.247Z,-3.45
2019-01-21T07:33:43.405Z,-3.37
2019-01-21T07:34:43.564Z,-3.49
2019-01-21T07:35:43.745Z,-3.52
2019-01-21T07:36:43.899Z,-3.46
2019-01-21T07:37:44.084Z,-3.44
2019-01-21T07:38:44.239Z,-3.34
2019-01-21T07:39:44.420Z,-3.37
2019-01-21T07:40:44.623Z,-3.38
2019-01-21T07:41:44.757Z,-3.41
2019-01-21T07:42:44.929Z,-3.46
2019-01-21T07:43:45.092Z,-3.54
2019-01-21T07:44:45.260Z,-3.49
2019-01-21T07:45:45.426Z,-3.56
2019-01-21T07:46:45.589Z,-3.63
2019-01-21T07:47:45.758Z,-3.70
2019-01-21T07:48:45.923Z,-3.61
2019-01-21T07:49:46.089Z,-3.80
2019-01-21T07:50:46.265Z,-3.75
2019-01-21T07:51:46.431Z,-3.63
2019-01-21T07:52:46.601Z,-3.63
2019-01-21T07:53:46.780Z,-3.61
2019-01-21T07:54:46.938Z,-3.51
2019-01-21T07:55:47.102Z,-3.55
2019-01-21T07:56:47.260Z,-3.48
2019-01-21T07:57:47.425Z,-3.33
2019-01-21T07:58:47.600Z,-3.35
2019-01-21T07:59:47.761Z,-3.49
2019-01-21T08:00:47.928Z,-3.63
2019-01-21T08:01:48.105Z,-3.72
2019-01-21T08:02:48.264Z,-3.64
2019-01-21T08:03:48.429Z,-3.44
2019-01-21T08:04:48.612Z,-3.45
2019-01-21T08:05:48.758Z,-3.41
2019-01-21T08:06:48.923Z,-3.40
2019-01-21T08:07:49.086Z,-3.38
2019-01-21T08:08:49.256Z,-3.31
2019-01-21T08:09:49.427Z,-3.31
2019-01-21T08:10:49.597Z,-3.25
2019-01-21T08:11:49.761Z,-3.13
2019-01-21T08:12:49.932Z,-3.30
2019-01-21T08:13:50.100Z,-3.12
2019-01-21T08:14:50.266Z,-3.23
2019-01-21T08:15:50.430Z,-3.28
2019-01-21T08:16:50.599Z,-3.35
2019-01-21T08:17:50.778Z,-3.35
2019-01-21T08:18:50.929Z,-3.28
2019-01-21T08:19:51.114Z,-3.31
2019-01-21T08:20:51.263Z,-3.28
2019-01-21T08:21:51.428Z,-3.16
2019-01-21T08:22:51.601Z,-3.19
2019-01-21T08:23:51.773Z,-3.16
2019-01-21T08:24:51.930Z,-3.13
2019-01-21T08:25:52.096Z,-2.94
2019-01-21T08:26:52.340Z,-3.07
2019-01-21T08:27:52.417Z,-3.09
2019-01-21T08:28:53.491Z,-3.06
2019-01-21T08:29:52.738Z,-2.98
2019-01-21T08:30:52.906Z,-2.98
2019-01-21T08:31:53.072Z,-2.95
2019-01-21T08:32:53.243Z,-3.13
2019-01-21T08:33:54.161Z,-3.31
2019-01-21T08:34:53.584Z,-3.28
2019-01-21T08:35:53.741Z,-3.27
2019-01-21T08:36:53.908Z,-3.12
2019-01-21T08:37:54.084Z,-3.10
2019-01-21T08:38:54.251Z,-2.91
2019-01-21T08:39:54.410Z,-2.91
2019-01-21T08:40:54.582Z,-2.77
2019-01-21T08:41:54.746Z,-2.74
2019-01-21T08:42:54.911Z,-2.69
2019-01-21T08:43:55.088Z,-2.81
2019-01-21T08:44:55.255Z,-2.73
2019-01-21T08:45:55.419Z,-2.66
2019-01-21T08:46:55.586Z,-2.69
2019-01-21T08:47:55.746Z,-2.65
2019-01-21T08:48:55.915Z,-2.53
2019-01-21T08:49:56.081Z,-2.59
2019-01-21T08:50:56.250Z,-2.60
2019-01-21T08:51:56.420Z,-2.47
2019-01-21T08:52:57.878Z,-2.40
2019-01-21T08:53:56.749Z,-2.44
2019-01-21T08:54:56.914Z,-2.50
2019-01-21T08:55:57.085Z,-2.47
2019-01-21T08:56:57.253Z,-2.60
2019-01-21T08:57:57.417Z,-2.52
2019-01-21T08:58:57.580Z,-2.66
2019-01-21T08:59:57.752Z,-2.55
2019-01-21T09:00:57.913Z,-2.60
2019-01-21T09:01:58.081Z,-2.55
2019-01-21T09:02:58.248Z,-2.55
2019-01-21T09:03:58.416Z,-2.63
2019-01-21T09:04:58.588Z,-2.42
2019-01-21T09:05:58.791Z,-2.42
2019-01-21T09:07:00.798Z,-2.41
2019-01-21T09:07:59.091Z,-2.34
2019-01-21T09:08:59.258Z,-2.32
2019-01-21T09:09:59.443Z,-2.23
2019-01-21T09:10:59.573Z,-2.22
2019-01-21T09:11:59.742Z,-2.35
2019-01-21T09:12:59.912Z,-2.48
2019-01-21T09:14:00.103Z,-2.44
2019-01-21T09:15:00.277Z,-2.35
2019-01-21T09:16:00.447Z,-2.19
2019-01-21T09:17:00.620Z,-2.15
2019-01-21T09:18:00.775Z,-2.15
2019-01-21T09:19:00.945Z,-2.05
2019-01-21T09:20:01.093Z,-2.15
2019-01-21T09:21:01.261Z,-1.94
2019-01-21T09:22:01.419Z,-1.83
2019-01-21T09:23:01.583Z,-1.84
2019-01-21T09:24:01.752Z,-1.86
2019-01-21T09:25:01.921Z,-1.83
2019-01-21T09:26:02.089Z,-1.97
2019-01-21T09:27:02.259Z,-1.86
2019-01-21T09:28:02.427Z,-1.83
2019-01-21T09:29:02.602Z,-1.64
2019-01-21T09:30:02.753Z,-1.66
2019-01-21T09:31:02.929Z,-1.72
2019-01-21T09:32:03.107Z,-1.47
2019-01-21T09:33:03.267Z,-1.41
2019-01-21T09:34:03.434Z,-1.46
2019-01-21T09:35:03.606Z,-1.37
2019-01-21T09:36:03.793Z,-1.26
2019-01-21T09:37:03.958Z,-1.25
2019-01-21T09:38:04.132Z,-1.11
2019-01-21T09:39:04.293Z,-1.15
2019-01-21T09:40:04.461Z,-1.15
2019-01-21T09:41:04.627Z,-1.09
2019-01-21T09:42:04.797Z,-1.05
2019-01-21T09:43:04.966Z,-1.07
2019-01-21T09:44:05.136Z,-1.05
2019-01-21T09:45:05.305Z,-0.97
2019-01-21T09:46:05.473Z,-0.93
2019-01-21T09:47:05.645Z,-0.78
2019-01-21T09:48:05.813Z,-0.53
2019-01-21T09:49:05.981Z,-0.52
2019-01-21T09:50:06.207Z,-0.49
2019-01-21T09:51:06.276Z,-0.49
2019-01-21T09:52:06.442Z,-0.44
2019-01-21T09:53:06.602Z,-0.39
2019-01-21T09:54:06.784Z,-0.56
2019-01-21T09:55:06.966Z,-0.64
2019-01-21T09:56:07.108Z,-0.64
2019-01-21T09:57:07.273Z,-0.57
2019-01-21T09:58:07.444Z,-0.53
2019-01-21T09:59:07.598Z,-0.59
2019-01-21T10:00:07.766Z,-0.49
2019-01-21T10:01:07.928Z,-0.38
2019-01-21T10:02:08.100Z,-0.31
2019-01-21T10:03:08.258Z,0.22
2019-01-21T10:04:08.436Z,0.47
2019-01-21T10:05:08.593Z,0.50
2019-01-21T10:06:08.753Z,0.69
2019-01-21T10:07:08.936Z,0.91
2019-01-21T10:08:09.095Z,1.50
2019-01-21T10:09:09.294Z,1.52
2019-01-21T10:10:09.420Z,1.41
2019-01-21T10:11:09.590Z,1.97
2019-01-21T10:12:09.755Z,2.15
2019-01-21T10:13:09.917Z,2.26
2019-01-21T10:14:10.088Z,2.62
2019-01-21T10:15:10.260Z,3.21
2019-01-21T10:16:10.421Z,3.44
2019-01-21T10:17:10.587Z,3.51
2019-01-21T10:18:10.760Z,2.95
2019-01-21T10:19:10.926Z,2.74
2019-01-21T10:20:11.118Z,3.10
2019-01-21T10:21:11.272Z,3.63
2019-01-21T10:22:11.465Z,3.88
2019-01-21T10:23:11.870Z,4.06
2019-01-21T10:24:11.773Z,3.40
2019-01-21T10:25:11.944Z,2.17
2019-01-21T10:26:12.117Z,1.95
2019-01-21T10:27:12.285Z,2.07
2019-01-21T10:28:12.440Z,2.22
2019-01-21T10:29:12.613Z,2.87
2019-01-21T10:30:12.797Z,3.10
2019-01-21T10:31:12.965Z,3.66
2019-01-21T10:32:13.233Z,3.70
2019-01-21T10:33:13.314Z,4.13
2019-01-21T10:34:13.471Z,4.50
2019-01-21T10:35:13.645Z,4.34
2019-01-21T10:36:13.816Z,4.35
2019-01-21T10:37:13.999Z,4.63
2019-01-21T10:38:14.169Z,4.62
2019-01-21T10:39:15.395Z,4.24
2019-01-21T10:40:14.725Z,4.80
2019-01-21T10:41:14.729Z,4.58
2019-01-21T10:42:14.861Z,4.49
2019-01-21T10:43:16.249Z,4.75
2019-01-21T10:44:15.212Z,5.04
2019-01-21T10:45:15.382Z,5.44
2019-01-21T10:46:15.557Z,5.35
2019-01-21T10:47:15.737Z,5.82
2019-01-21T10:48:15.916Z,5.15
2019-01-21T10:49:16.094Z,4.59
2019-01-21T10:50:16.259Z,4.44
2019-01-21T10:51:16.437Z,4.73
2019-01-21T10:52:16.608Z,4.73
2019-01-21T10:53:16.782Z,4.74
2019-01-21T10:54:16.960Z,4.55
2019-01-21T10:55:17.154Z,4.80
2019-01-21T10:56:19.203Z,5.10
2019-01-21T10:57:17.704Z,5.39
2019-01-21T10:58:17.731Z,5.64
2019-01-21T10:59:18.301Z,5.66
2019-01-21T11:00:18.234Z,5.97
2019-01-21T11:01:18.484Z,6.33
2019-01-21T11:02:19.534Z,6.64
2019-01-21T11:03:18.480Z,6.92
2019-01-21T11:04:18.673Z,6.88
2019-01-21T11:05:18.954Z,6.31
2019-01-21T11:06:19.413Z,4.86
2019-01-21T11:07:20.588Z,4.52
2019-01-21T11:08:19.432Z,4.32
2019-01-21T11:09:19.810Z,4.82
2019-01-21T11:10:19.866Z,4.66
2019-01-21T11:11:20.005Z,4.94
2019-01-21T11:12:20.187Z,5.17
2019-01-21T11:13:20.368Z,5.57
2019-01-21T11:14:20.862Z,5.62
2019-01-21T11:15:20.843Z,6.01
2019-01-21T11:16:20.984Z,6.36
2019-01-21T11:17:21.067Z,6.57
2019-01-21T11:18:21.270Z,6.74
2019-01-21T11:19:22.131Z,6.87
2019-01-21T11:20:24.145Z,6.44
2019-01-21T11:21:21.832Z,6.20
2019-01-21T11:22:21.964Z,7.14
2019-01-21T11:23:22.193Z,7.14
2019-01-21T11:24:22.504Z,6.42
2019-01-21T11:25:22.556Z,7.38
2019-01-21T11:26:22.977Z,8.06
2019-01-21T11:27:23.524Z,8.09
2019-01-21T11:28:24.261Z,8.51
2019-01-21T11:29:26.252Z,8.08
2019-01-21T11:30:23.364Z,8.06
2019-01-21T11:31:23.834Z,7.80
2019-01-21T11:32:23.735Z,8.31
2019-01-21T11:33:23.906Z,8.73
2019-01-21T11:34:24.069Z,9.37
2019-01-21T11:35:24.758Z,9.69
2019-01-21T11:36:24.726Z,9.72
2019-01-21T11:37:24.611Z,9.44
2019-01-21T11:38:24.885Z,8.69
2019-01-21T11:39:24.987Z,7.87
2019-01-21T11:40:25.867Z,6.28
2019-01-21T11:41:25.472Z,5.38
2019-01-21T11:42:25.755Z,5.98
2019-01-21T11:43:26.186Z,6.52
2019-01-21T11:44:26.602Z,5.84
2019-01-21T11:45:26.593Z,6.07
2019-01-21T11:46:26.733Z,6.59
2019-01-21T11:47:27.407Z,7.28
2019-01-21T11:48:27.638Z,7.58
2019-01-21T11:49:26.919Z,7.03
2019-01-21T11:50:27.063Z,7.63
2019-01-21T11:51:27.230Z,7.53
2019-01-21T11:52:27.395Z,7.51
2019-01-21T11:53:27.577Z,6.57
2019-01-21T11:54:27.752Z,6.85
2019-01-21T11:55:27.939Z,7.23
2019-01-21T11:56:28.102Z,7.18
2019-01-21T11:57:28.276Z,7.50
2019-01-21T11:58:28.450Z,7.54
2019-01-21T11:59:28.623Z,6.74
2019-01-21T12:00:28.802Z,7.17
2019-01-21T12:01:28.966Z,7.42
2019-01-21T12:02:29.157Z,7.45
2019-01-21T12:03:29.345Z,7.61
2019-01-21T12:04:29.501Z,7.28
2019-01-21T12:05:29.681Z,7.35
2019-01-21T12:06:29.849Z,7.05
2019-01-21T12:07:30.027Z,7.14
2019-01-21T12:08:30.192Z,7.54
2019-01-21T12:09:30.379Z,7.75
2019-01-21T12:10:30.574Z,7.69
2019-01-21T12:11:30.741Z,6.67
2019-01-21T12:12:31.223Z,6.63
2019-01-21T12:13:31.097Z,6.88
2019-01-21T12:14:31.276Z,6.79
2019-01-21T12:15:31.487Z,7.42
2019-01-21T12:16:31.633Z,7.40
2019-01-21T12:17:31.927Z,7.50
2019-01-21T12:18:31.974Z,7.61
2019-01-21T12:19:32.148Z,7.60
2019-01-21T12:20:32.330Z,7.73
2019-01-21T12:21:32.537Z,7.75
2019-01-21T12:22:32.737Z,7.94
2019-01-21T12:23:32.918Z,7.58
2019-01-21T12:24:33.098Z,7.73
2019-01-21T12:25:33.255Z,7.58
2019-01-21T12:26:33.448Z,8.20
2019-01-21T12:27:33.626Z,7.57
2019-01-21T12:28:33.808Z,7.98
2019-01-21T12:29:33.977Z,8.00
2019-01-21T12:30:34.136Z,7.80
2019-01-21T12:31:34.310Z,7.07
2019-01-21T12:32:34.487Z,6.81
2019-01-21T12:33:34.666Z,6.69
2019-01-21T12:34:34.839Z,6.14
2019-01-21T12:35:35.018Z,6.66
2019-01-21T12:36:35.220Z,7.06
2019-01-21T12:37:35.406Z,7.50
2019-01-21T12:38:35.589Z,7.10
2019-01-21T12:39:36.016Z,7.47
2019-01-21T12:40:38.554Z,7.20
2019-01-21T12:41:36.329Z,7.56
2019-01-21T12:42:36.321Z,7.69
2019-01-21T12:43:36.720Z,7.67
2019-01-21T12:44:36.893Z,7.91
2019-01-21T12:45:37.016Z,7.69
2019-01-21T12:46:37.018Z,7.79
2019-01-21T12:47:37.203Z,7.72
2019-01-21T12:48:37.385Z,7.48
2019-01-21T12:49:37.554Z,7.43
2019-01-21T12:50:38.007Z,7.63
2019-01-21T12:51:38.325Z,7.67
2019-01-21T12:52:39.040Z,7.91
2019-01-21T12:55:11.615Z,8.24
2019-01-21T12:56:11.731Z,8.15
2019-01-21T12:57:14.541Z,7.91
2019-01-21T12:58:12.067Z,7.97
2019-01-21T12:59:15.926Z,6.93
2019-01-21T13:00:14.421Z,7.15
2019-01-21T13:01:13.933Z,6.93
2019-01-21T13:02:12.930Z,7.05
2019-01-21T13:03:14.323Z,6.77
2019-01-21T13:04:13.239Z,6.79